To NAV CANADA Home Page Login to a new session Search on AWWS site Feedback and Comments Disclaimer Vers la page française équivalente Tips FAQ What's new on the site To the Forecasts and Observations / NOTAM section To "File a Flight Plan" website Publications and other links Update of the User's profile FIC Telephone Numbers My Weather Data Folder Route Weather Data Regional Weather Data Local Weather Data To the Forecasts and Observations / NOTAM section
Request Generated 05/25/2017 at 01:17:18 UTC . Weather information available at that time is displayed.

METAR/TAF

MONCTON/GREATER MONCTON ROMEO LEBLANC INTL/NB    

METAR CYQM 250100Z 03008KT 15SM -SHRA FEW063 BKN087 09/08 A2992 RMK
SC2AC5 CVCTV CLD EMBD SLP136=
SPECI CYQM 250003Z 03010KT 15SM -SHRA FEW055 BKN060 BKN070 10/08
A2990 RMK SC2SC3AC2 CCTV CLD EMBD SLP130=
METAR CYQM 250000Z 04011KT 15SM FEW055 BKN060 BKN071 10/08 A2990 RMK
SC2SC3AC2 SLP129=
METAR CYQM 242300Z 03009KT 15SM SCT077 BKN087 BKN250 12/09 A2986 RMK
AC3AC3CI1 SLP115=

TAF CYQM 242339Z 2500/2524 03009KT P6SM BKN080 TEMPO 2500/2503 P6SM
-SHRA
FM250300 06006KT P6SM SCT005 OVC070 PROB30 2503/2506 3SM BR
BKN003
FM250600 04006KT 3SM BR OVC003
FM251100 04006KT 5SM BR BKN006 BKN040
FM251300 04008KT P6SM FEW006 BKN040
FM251600 06009KT P6SM BKN240
RMK NXT FCST BY 250600Z=
Your time UTC time
Weather data provided by Environment Canada and NAV CANADA